Terminal Aerodrome Forecast
Issued by NWS Jackson, MS

Home | Current Version | Previous Version | Text Only | Print | Product List | Glossary On
Versions: 1 2 3 4 5 6 7 8 9 10 11 12 13 14 15 16 17 18 19 20
000
FTUS44 KJAN 022300 RRA
TAFHBG
TAF
KHBG 022351Z 0300/0324 VRB05KT P6SM VCTS SCT040CB BKN150
     FM030130 25005G15KT 6SM -TSRA SCT020 BKN030CB OVC100
     FM030330 VRB04KT P6SM VCSH FEW015 SCT060 BKN120
     FM030700 VRB04KT 6SM BR FEW060 SCT150
     FM031100 VRB03KT 3SM BR SCT006 SCT060 SCT200
     FM031330 VRB05KT P6SM SCT025 BKN250=

USA.gov is the U.S. government's official web portal to all federal, state and local government web resources and services.